Main page
METAR-TAF:

METAR-TAF

Airports :

Schleswig Air Base

Schleswig-Jagel, Germany

latitude: 54-28N, longitude: 009-31E, elevation: 22 m

Current weather observation

The report was made 19 minutes ago, at 18:20 UTC
Wind 7 kt from the South
Temperature 7°C
Humidity 100%
Pressure 1011 hPa
Visibility: 5000 m

METAR: ETNS 171820Z AUTO 19007KT 5000 // ////// 07/07 Q1011 ///

Time: 19:39 (18:39 UTC)

Forecast

The report was made 7 hours and 45 minutes ago, at 10:54 UTC
Forecast valid from 17 at 10 UTC to 17 at 18 UTC
Wind 15 kt from the South/Southeast
Visibility 10 km or more
Broken clouds at a height of 25000 ft
Temporary
from 17 at 16 UTC to 17 at 18 UTC
Wind 12 kt from the South
Visibility: 1100 m
Broken clouds at a height of 1500 ft
Broken clouds at a height of 5000 ft
light rain

TAF: ETNS 171054Z 1710/1718 16015KT 9999 NSW BKN250 TEMPO 1716/1718 18012KT 7000 -RA BKN015 BKN050 CANCEL 1100 BY ETGL

Weather observations and forecasts of more than 4000 airports (METAR and TAF reports).

The available stations are represented by yellow and red dots on the map.

Hover mouse over dot to see the name of the station.

Then click to see weather observations and forecasts.

To change the map : click on the green buttons with a black cross to zoom in, on the green button with a dash to zoom out, or on the green arrows for adjacent maps.


METAR-TAF: